PWSweather.com
Personal Weather Stations
Station Observations
KMIEASTT1
Tawas Bay, East Tawas, MI 48730

Tawas BayEast Tawas, MI 48730

Lat: 44.28, Lon: -83.48

Elevation: 600

Station Type: Davis VantagePro

http://www.tawasbayweather.com

High Low Average
Temperature 29.7°F-1.3°F 18.3°F-7.6°F 25.4°F-3.7°F
Dew Point 25.6°F-3.6°F 12.3°F-10.9°F 20.1°F-6.6°F
Winds 11.0 mph NW17.7 mph NW Calm Calm 4.4 mph 7.1 mph
Wind Gusts 14.0 mph22.5 mph 2.0 mph3.2 mph 7.9 mph12.7 mph
Humidity 89% 65% 80%
Pressure 30.36 in1028.10 in 30.12 in1020.00 in -
Precipitation 0.00 in0.00 in - -
Hour Temp Dew Point Humidity Winds Wind Gusts Pressure Precip Precip Rate Daily Precip Total
12:01 AM 27.3°F-2.6°C 23.4°F-4.8°C 85% 3.0 mph WNW4.8 kmh WNW 6.0 mph9.7 kmh 30.15 in1021.0 mb 0.00 in0.0 mm 0.00 in/hr0.0 mm/hr 0.00 in0.0 mm
12:15 AM 27.3°F-2.6°C 23.4°F-4.8°C 85% 2.0 mph W3.2 kmh W 4.0 mph6.4 kmh 30.15 in1021.0 mb 0.00 in0.0 mm 0.00 in/hr0.0 mm/hr 0.00 in0.0 mm
12:30 AM 27.2°F-2.7°C 23.3°F-4.8°C 85% 2.0 mph WNW3.2 kmh WNW 5.0 mph8.0 kmh 30.15 in1021.0 mb 0.00 in0.0 mm 0.00 in/hr0.0 mm/hr 0.00 in0.0 mm
12:45 AM 27.1°F-2.7°C 23.2°F-4.9°C 85% 1.0 mph W1.6 kmh W 4.0 mph6.4 kmh 30.16 in1021.3 mb 0.00 in0.0 mm 0.00 in/hr0.0 mm/hr 0.00 in0.0 mm
01:00 AM 27.2°F-2.7°C 23.0°F-5.0°C 84% 4.0 mph W6.4 kmh W 6.0 mph9.7 kmh 30.15 in1021.0 mb 0.00 in0.0 mm 0.00 in/hr0.0 mm/hr 0.00 in0.0 mm
01:15 AM 27.2°F-2.7°C 23.0°F-5.0°C 84% 1.0 mph W1.6 kmh W 5.0 mph8.0 kmh 30.15 in1021.0 mb 0.00 in0.0 mm 0.00 in/hr0.0 mm/hr 0.00 in0.0 mm
01:30 AM 27.4°F-2.6°C 23.2°F-4.9°C 84% 2.0 mph NW3.2 kmh NW 5.0 mph8.0 kmh 30.15 in1021.0 mb 0.00 in0.0 mm 0.00 in/hr0.0 mm/hr 0.00 in0.0 mm
01:45 AM 27.1°F-2.7°C 22.9°F-5.1°C 84% 7.0 mph WNW11.3 kmh WNW 10.0 mph16.1 kmh 30.14 in1020.7 mb 0.00 in0.0 mm 0.00 in/hr0.0 mm/hr 0.00 in0.0 mm
02:00 AM 27.1°F-2.7°C 22.9°F-5.1°C 84% 5.0 mph NW8.0 kmh NW 9.0 mph14.5 kmh 30.14 in1020.7 mb 0.00 in0.0 mm 0.00 in/hr0.0 mm/hr 0.00 in0.0 mm
02:15 AM 27.2°F-2.7°C 23.0°F-5.0°C 84% 4.0 mph W6.4 kmh W 11.0 mph17.7 kmh 30.14 in1020.7 mb 0.00 in0.0 mm 0.00 in/hr0.0 mm/hr 0.00 in0.0 mm
02:30 AM 27.3°F-2.6°C 22.8°F-5.1°C 83% 4.0 mph NW6.4 kmh NW 8.0 mph12.9 kmh 30.13 in1020.3 mb 0.00 in0.0 mm 0.00 in/hr0.0 mm/hr 0.00 in0.0 mm
02:45 AM 27.5°F-2.5°C 22.7°F-5.2°C 82% 2.0 mph NW3.2 kmh NW 6.0 mph9.7 kmh 30.14 in1020.7 mb 0.00 in0.0 mm 0.00 in/hr0.0 mm/hr 0.00 in0.0 mm
03:00 AM 27.6°F-2.4°C 22.8°F-5.1°C 82% 2.0 mph NW3.2 kmh NW 4.0 mph6.4 kmh 30.15 in1021.0 mb 0.00 in0.0 mm 0.00 in/hr0.0 mm/hr 0.00 in0.0 mm
03:15 AM 27.9°F-2.3°C 23.1°F-4.9°C 82% 1.0 mph NW1.6 kmh NW 3.0 mph4.8 kmh 30.15 in1021.0 mb 0.00 in0.0 mm 0.00 in/hr0.0 mm/hr 0.00 in0.0 mm
03:30 AM 28.1°F-2.2°C 23.3°F-4.8°C 82% 1.0 mph NNW1.6 kmh NNW 2.0 mph3.2 kmh 30.15 in1021.0 mb 0.00 in0.0 mm 0.00 in/hr0.0 mm/hr 0.00 in0.0 mm
03:45 AM 27.9°F-2.3°C 22.8°F-5.1°C 81% 6.0 mph NNW9.7 kmh NNW 8.0 mph12.9 kmh 30.14 in1020.7 mb 0.00 in0.0 mm 0.00 in/hr0.0 mm/hr 0.00 in0.0 mm
04:00 AM 27.9°F-2.3°C 22.5°F-5.3°C 80% 2.0 mph WNW3.2 kmh WNW 7.0 mph11.3 kmh 30.14 in1020.7 mb 0.00 in0.0 mm 0.00 in/hr0.0 mm/hr 0.00 in0.0 mm
04:15 AM 27.8°F-2.3°C 22.7°F-5.2°C 81% 5.0 mph NW8.0 kmh NW 6.0 mph9.7 kmh 30.14 in1020.7 mb 0.00 in0.0 mm 0.00 in/hr0.0 mm/hr 0.00 in0.0 mm
04:30 AM 27.8°F-2.3°C 22.7°F-5.2°C 81% 4.0 mph NW6.4 kmh NW 8.0 mph12.9 kmh 30.14 in1020.7 mb 0.00 in0.0 mm 0.00 in/hr0.0 mm/hr 0.00 in0.0 mm
04:45 AM 27.7°F-2.4°C 22.9°F-5.1°C 82% 3.0 mph NW4.8 kmh NW 7.0 mph11.3 kmh 30.14 in1020.7 mb 0.00 in0.0 mm 0.00 in/hr0.0 mm/hr 0.00 in0.0 mm
05:00 AM 27.5°F-2.5°C 23.0°F-5.0°C 83% 6.0 mph NW9.7 kmh NW 6.0 mph9.7 kmh 30.14 in1020.7 mb 0.00 in0.0 mm 0.00 in/hr0.0 mm/hr 0.00 in0.0 mm
05:15 AM 27.4°F-2.6°C 22.9°F-5.1°C 83% 4.0 mph NW6.4 kmh NW 6.0 mph9.7 kmh 30.14 in1020.7 mb 0.00 in0.0 mm 0.00 in/hr0.0 mm/hr 0.00 in0.0 mm
05:30 AM 27.3°F-2.6°C 22.8°F-5.1°C 83% 4.0 mph NW6.4 kmh NW 8.0 mph12.9 kmh 30.14 in1020.7 mb 0.00 in0.0 mm 0.00 in/hr0.0 mm/hr 0.00 in0.0 mm
05:45 AM 26.9°F-2.8°C 22.4°F-5.3°C 83% 5.0 mph NW8.0 kmh NW 10.0 mph16.1 kmh 30.14 in1020.7 mb 0.00 in0.0 mm 0.00 in/hr0.0 mm/hr 0.00 in0.0 mm
06:00 AM 26.7°F-2.9°C 22.5°F-5.3°C 84% 4.0 mph NW6.4 kmh NW 10.0 mph16.1 kmh 30.15 in1021.0 mb 0.00 in0.0 mm 0.00 in/hr0.0 mm/hr 0.00 in0.0 mm
06:15 AM 26.7°F-2.9°C 22.8°F-5.1°C 85% 6.0 mph NW9.7 kmh NW 7.0 mph11.3 kmh 30.15 in1021.0 mb 0.00 in0.0 mm 0.00 in/hr0.0 mm/hr 0.00 in0.0 mm
06:30 AM 26.7°F-2.9°C 22.8°F-5.1°C 85% 5.0 mph NW8.0 kmh NW 8.0 mph12.9 kmh 30.15 in1021.0 mb 0.00 in0.0 mm 0.00 in/hr0.0 mm/hr 0.00 in0.0 mm
06:45 AM 26.8°F-2.9°C 22.6°F-5.2°C 84% 4.0 mph NW6.4 kmh NW 7.0 mph11.3 kmh 30.14 in1020.7 mb 0.00 in0.0 mm 0.00 in/hr0.0 mm/hr 0.00 in0.0 mm
07:00 AM 26.8°F-2.9°C 22.9°F-5.1°C 85% 5.0 mph NW8.0 kmh NW 7.0 mph11.3 kmh 30.13 in1020.3 mb 0.00 in0.0 mm 0.00 in/hr0.0 mm/hr 0.00 in0.0 mm
07:15 AM 26.9°F-2.8°C 23.3°F-4.8°C 86% 2.0 mph NW3.2 kmh NW 7.0 mph11.3 kmh 30.12 in1020.0 mb 0.00 in0.0 mm 0.00 in/hr0.0 mm/hr 0.00 in0.0 mm
07:30 AM 26.9°F-2.8°C 23.6°F-4.7°C 87% 4.0 mph NW6.4 kmh NW 7.0 mph11.3 kmh 30.13 in1020.3 mb 0.00 in0.0 mm 0.00 in/hr0.0 mm/hr 0.00 in0.0 mm
07:45 AM 26.8°F-2.9°C 23.7°F-4.6°C 88% 3.0 mph NW4.8 kmh NW 7.0 mph11.3 kmh 30.13 in1020.3 mb 0.00 in0.0 mm 0.00 in/hr0.0 mm/hr 0.00 in0.0 mm
08:00 AM 26.8°F-2.9°C 23.7°F-4.6°C 88% 5.0 mph NW8.0 kmh NW 7.0 mph11.3 kmh 30.13 in1020.3 mb 0.00 in0.0 mm 0.00 in/hr0.0 mm/hr 0.00 in0.0 mm
08:15 AM 26.7°F-2.9°C 23.6°F-4.7°C 88% 5.0 mph NW8.0 kmh NW 7.0 mph11.3 kmh 30.13 in1020.3 mb 0.00 in0.0 mm 0.00 in/hr0.0 mm/hr 0.00 in0.0 mm
08:30 AM 26.7°F-2.9°C 23.9°F-4.5°C 89% 5.0 mph NW8.0 kmh NW 5.0 mph8.0 kmh 30.13 in1020.3 mb 0.00 in0.0 mm 0.00 in/hr0.0 mm/hr 0.00 in0.0 mm
08:45 AM 26.8°F-2.9°C 24.0°F-4.4°C 89% 2.0 mph NW3.2 kmh NW 6.0 mph9.7 kmh 30.14 in1020.7 mb 0.00 in0.0 mm 0.00 in/hr0.0 mm/hr 0.00 in0.0 mm
09:01 AM 27.1°F-2.7°C 24.3°F-4.3°C 89% 4.0 mph NW6.4 kmh NW 8.0 mph12.9 kmh 30.15 in1021.0 mb 0.00 in0.0 mm 0.00 in/hr0.0 mm/hr 0.00 in0.0 mm
09:15 AM 27.5°F-2.5°C 24.7°F-4.1°C 89% 3.0 mph NW4.8 kmh NW 7.0 mph11.3 kmh 30.15 in1021.0 mb 0.00 in0.0 mm 0.00 in/hr0.0 mm/hr 0.00 in0.0 mm
09:30 AM 27.8°F-2.3°C 24.7°F-4.1°C 88% 8.0 mph NNW12.9 kmh NNW 9.0 mph14.5 kmh 30.16 in1021.3 mb 0.00 in0.0 mm 0.00 in/hr0.0 mm/hr 0.00 in0.0 mm
09:45 AM 28.1°F-2.2°C 24.7°F-4.1°C 87% 4.0 mph NW6.4 kmh NW 9.0 mph14.5 kmh 30.16 in1021.3 mb 0.00 in0.0 mm 0.00 in/hr0.0 mm/hr 0.00 in0.0 mm
10:00 AM 28.6°F-1.9°C 25.2°F-3.8°C 87% 7.0 mph WNW11.3 kmh WNW 8.0 mph12.9 kmh 30.17 in1021.7 mb 0.00 in0.0 mm 0.00 in/hr0.0 mm/hr 0.00 in0.0 mm
10:15 AM 28.6°F-1.9°C 25.5°F-3.6°C 88% 1.0 mph WNW1.6 kmh WNW 7.0 mph11.3 kmh 30.17 in1021.7 mb 0.00 in0.0 mm 0.00 in/hr0.0 mm/hr 0.00 in0.0 mm
10:30 AM 28.7°F-1.8°C 25.6°F-3.6°C 88% 5.0 mph N8.0 kmh N 9.0 mph14.5 kmh 30.18 in1022.0 mb 0.00 in0.0 mm 0.00 in/hr0.0 mm/hr 0.00 in0.0 mm
10:45 AM 28.8°F-1.8°C 24.9°F-3.9°C 85% 8.0 mph NW12.9 kmh NW 12.0 mph19.3 kmh 30.18 in1022.0 mb 0.00 in0.0 mm 0.00 in/hr0.0 mm/hr 0.00 in0.0 mm
11:00 AM 28.9°F-1.7°C 24.7°F-4.1°C 84% 5.0 mph NW8.0 kmh NW 9.0 mph14.5 kmh 30.19 in1022.4 mb 0.00 in0.0 mm 0.00 in/hr0.0 mm/hr 0.00 in0.0 mm
11:15 AM 28.0°F-2.2°C 24.4°F-4.2°C 86% 3.0 mph NW4.8 kmh NW 11.0 mph17.7 kmh 30.20 in1022.7 mb 0.00 in0.0 mm 0.00 in/hr0.0 mm/hr 0.00 in0.0 mm
11:30 AM 27.2°F-2.7°C 23.9°F-4.5°C 87% 10.0 mph NNW16.1 kmh NNW 12.0 mph19.3 kmh 30.19 in1022.4 mb 0.00 in0.0 mm 0.00 in/hr0.0 mm/hr 0.00 in0.0 mm
11:45 AM 27.1°F-2.7°C 24.3°F-4.3°C 89% 5.0 mph NW8.0 kmh NW 7.0 mph11.3 kmh 30.20 in1022.7 mb 0.00 in0.0 mm 0.00 in/hr0.0 mm/hr 0.00 in0.0 mm
12:00 PM 26.8°F-2.9°C 24.0°F-4.4°C 89% 6.0 mph NW9.7 kmh NW 12.0 mph19.3 kmh 30.19 in1022.4 mb 0.00 in0.0 mm 0.00 in/hr0.0 mm/hr 0.00 in0.0 mm
12:15 PM 26.7°F-2.9°C 23.4°F-4.8°C 87% 7.0 mph WNW11.3 kmh WNW 10.0 mph16.1 kmh 30.19 in1022.4 mb 0.00 in0.0 mm 0.00 in/hr0.0 mm/hr 0.00 in0.0 mm
12:30 PM 26.9°F-2.8°C 22.4°F-5.3°C 83% 11.0 mph NW17.7 kmh NW 13.0 mph20.9 kmh 30.19 in1022.4 mb 0.00 in0.0 mm 0.00 in/hr0.0 mm/hr 0.00 in0.0 mm
12:45 PM 27.7°F-2.4°C 22.4°F-5.3°C 80% 9.0 mph NW14.5 kmh NW 13.0 mph20.9 kmh 30.20 in1022.7 mb 0.00 in0.0 mm 0.00 in/hr0.0 mm/hr 0.00 in0.0 mm
01:00 PM 28.6°F-1.9°C 22.0°F-5.6°C 76% 4.0 mph NW6.4 kmh NW 13.0 mph20.9 kmh 30.20 in1022.7 mb 0.00 in0.0 mm 0.00 in/hr0.0 mm/hr 0.00 in0.0 mm
01:15 PM 29.2°F-1.6°C 22.6°F-5.2°C 76% 7.0 mph NW11.3 kmh NW 10.0 mph16.1 kmh 30.20 in1022.7 mb 0.00 in0.0 mm 0.00 in/hr0.0 mm/hr 0.00 in0.0 mm
01:30 PM 28.1°F-2.2°C 21.2°F-6.0°C 75% 6.0 mph WNW9.7 kmh WNW 11.0 mph17.7 kmh 30.20 in1022.7 mb 0.00 in0.0 mm 0.00 in/hr0.0 mm/hr 0.00 in0.0 mm
01:45 PM 27.8°F-2.3°C 21.2°F-6.0°C 76% 3.0 mph NNW4.8 kmh NNW 11.0 mph17.7 kmh 30.21 in1023.0 mb 0.00 in0.0 mm 0.00 in/hr0.0 mm/hr 0.00 in0.0 mm
02:00 PM 27.6°F-2.4°C 21.0°F-6.1°C 76% 6.0 mph NW9.7 kmh NW 11.0 mph17.7 kmh 30.21 in1023.0 mb 0.00 in0.0 mm 0.00 in/hr0.0 mm/hr 0.00 in0.0 mm
02:15 PM 28.0°F-2.2°C 20.5°F-6.4°C 73% 9.0 mph NW14.5 kmh NW 14.0 mph22.5 kmh 30.22 in1023.4 mb 0.00 in0.0 mm 0.00 in/hr0.0 mm/hr 0.00 in0.0 mm
02:30 PM 29.3°F-1.5°C 20.4°F-6.4°C 69% 11.0 mph NW17.7 kmh NW 12.0 mph19.3 kmh 30.22 in1023.4 mb 0.00 in0.0 mm 0.00 in/hr0.0 mm/hr 0.00 in0.0 mm
02:45 PM 29.4°F-1.4°C 20.8°F-6.2°C 70% 4.0 mph NW6.4 kmh NW 11.0 mph17.7 kmh 30.22 in1023.4 mb 0.00 in0.0 mm 0.00 in/hr0.0 mm/hr 0.00 in0.0 mm
03:00 PM 28.4°F-2.0°C 18.2°F-7.7°C 65% 5.0 mph NW8.0 kmh NW 14.0 mph22.5 kmh 30.22 in1023.4 mb 0.00 in0.0 mm 0.00 in/hr0.0 mm/hr 0.00 in0.0 mm
03:15 PM 29.0°F-1.7°C 19.4°F-7.0°C 67% 9.0 mph NW14.5 kmh NW 10.0 mph16.1 kmh 30.23 in1023.7 mb 0.00 in0.0 mm 0.00 in/hr0.0 mm/hr 0.00 in0.0 mm
03:30 PM 28.6°F-1.9°C 19.4°F-7.0°C 68% 5.0 mph WNW8.0 kmh WNW 11.0 mph17.7 kmh 30.23 in1023.7 mb 0.00 in0.0 mm 0.00 in/hr0.0 mm/hr 0.00 in0.0 mm
03:45 PM 29.7°F-1.3°C 20.8°F-6.2°C 69% 5.0 mph NW8.0 kmh NW 7.0 mph11.3 kmh 30.24 in1024.0 mb 0.00 in0.0 mm 0.00 in/hr0.0 mm/hr 0.00 in0.0 mm
04:00 PM 28.8°F-1.8°C 19.6°F-6.9°C 68% 5.0 mph NW8.0 kmh NW 9.0 mph14.5 kmh 30.24 in1024.0 mb 0.00 in0.0 mm 0.00 in/hr0.0 mm/hr 0.00 in0.0 mm
04:15 PM 26.7°F-2.9°C 17.2°F-8.2°C 67% 7.0 mph WNW11.3 kmh WNW 12.0 mph19.3 kmh 30.25 in1024.4 mb 0.00 in0.0 mm 0.00 in/hr0.0 mm/hr 0.00 in0.0 mm
04:30 PM 25.9°F-3.4°C 17.1°F-8.3°C 69% 4.0 mph NW6.4 kmh NW 8.0 mph12.9 kmh 30.25 in1024.4 mb 0.00 in0.0 mm 0.00 in/hr0.0 mm/hr 0.00 in0.0 mm
04:45 PM 24.9°F-3.9°C 16.8°F-8.4°C 71% 3.0 mph WNW4.8 kmh WNW 8.0 mph12.9 kmh 30.26 in1024.7 mb 0.00 in0.0 mm 0.00 in/hr0.0 mm/hr 0.00 in0.0 mm
05:00 PM 24.4°F-4.2°C 17.0°F-8.3°C 73% 3.0 mph NW4.8 kmh NW 8.0 mph12.9 kmh 30.27 in1025.1 mb 0.00 in0.0 mm 0.00 in/hr0.0 mm/hr 0.00 in0.0 mm
05:15 PM 24.0°F-4.4°C 16.9°F-8.4°C 74% 5.0 mph NW8.0 kmh NW 6.0 mph9.7 kmh 30.27 in1025.1 mb 0.00 in0.0 mm 0.00 in/hr0.0 mm/hr 0.00 in0.0 mm
05:30 PM 23.5°F-4.7°C 15.8°F-9.0°C 72% 6.0 mph NW9.7 kmh NW 11.0 mph17.7 kmh 30.28 in1025.4 mb 0.00 in0.0 mm 0.00 in/hr0.0 mm/hr 0.00 in0.0 mm
05:45 PM 23.1°F-4.9°C 15.1°F-9.4°C 71% 5.0 mph NW8.0 kmh NW 10.0 mph16.1 kmh 30.29 in1025.7 mb 0.00 in0.0 mm 0.00 in/hr0.0 mm/hr 0.00 in0.0 mm
06:00 PM 22.6°F-5.2°C 15.0°F-9.4°C 72% 5.0 mph NW8.0 kmh NW 9.0 mph14.5 kmh 30.29 in1025.7 mb 0.00 in0.0 mm 0.00 in/hr0.0 mm/hr 0.00 in0.0 mm
06:15 PM 22.2°F-5.4°C 15.2°F-9.3°C 74% 3.0 mph NW4.8 kmh NW 6.0 mph9.7 kmh 30.29 in1025.7 mb 0.00 in0.0 mm 0.00 in/hr0.0 mm/hr 0.00 in0.0 mm
06:30 PM 22.0°F-5.6°C 15.3°F-9.3°C 75% 2.0 mph WNW3.2 kmh WNW 6.0 mph9.7 kmh 30.30 in1026.1 mb 0.00 in0.0 mm 0.00 in/hr0.0 mm/hr 0.00 in0.0 mm
06:45 PM 21.8°F-5.7°C 15.4°F-9.2°C 76% 7.0 mph NNW11.3 kmh NNW 10.0 mph16.1 kmh 30.30 in1026.1 mb 0.00 in0.0 mm 0.00 in/hr0.0 mm/hr 0.00 in0.0 mm
07:00 PM 21.5°F-5.8°C 14.8°F-9.6°C 75% 7.0 mph NW11.3 kmh NW 7.0 mph11.3 kmh 30.31 in1026.4 mb 0.00 in0.0 mm 0.00 in/hr0.0 mm/hr 0.00 in0.0 mm
07:15 PM 21.1°F-6.1°C 14.1°F-9.9°C 74% 3.0 mph WNW4.8 kmh WNW 13.0 mph20.9 kmh 30.31 in1026.4 mb 0.00 in0.0 mm 0.00 in/hr0.0 mm/hr 0.00 in0.0 mm
07:30 PM 20.7°F-6.3°C 13.7°F-10.2°C 74% 5.0 mph NW8.0 kmh NW 6.0 mph9.7 kmh 30.32 in1026.8 mb 0.00 in0.0 mm 0.00 in/hr0.0 mm/hr 0.00 in0.0 mm
07:45 PM 20.3°F-6.5°C 13.7°F-10.2°C 75% 6.0 mph NW9.7 kmh NW 9.0 mph14.5 kmh 30.32 in1026.8 mb 0.00 in0.0 mm 0.00 in/hr0.0 mm/hr 0.00 in0.0 mm
08:00 PM 19.9°F-6.7°C 13.6°F-10.2°C 76% 5.0 mph NW8.0 kmh NW 9.0 mph14.5 kmh 30.33 in1027.1 mb 0.00 in0.0 mm 0.00 in/hr0.0 mm/hr 0.00 in0.0 mm
08:15 PM 19.6°F-6.9°C 13.6°F-10.2°C 77% 5.0 mph N8.0 kmh N 8.0 mph12.9 kmh 30.33 in1027.1 mb 0.00 in0.0 mm 0.00 in/hr0.0 mm/hr 0.00 in0.0 mm
08:30 PM 19.1°F-7.2°C 13.4°F-10.3°C 78% 3.0 mph WNW4.8 kmh WNW 7.0 mph11.3 kmh 30.33 in1027.1 mb 0.00 in0.0 mm 0.00 in/hr0.0 mm/hr 0.00 in0.0 mm
08:45 PM 18.8°F-7.3°C 13.7°F-10.2°C 80% 2.0 mph NW3.2 kmh NW 6.0 mph9.7 kmh 30.33 in1027.1 mb 0.00 in0.0 mm 0.00 in/hr0.0 mm/hr 0.00 in0.0 mm
09:00 PM 18.5°F-7.5°C 13.4°F-10.3°C 80% 1.0 mph NW1.6 kmh NW 5.0 mph8.0 kmh 30.34 in1027.4 mb 0.00 in0.0 mm 0.00 in/hr0.0 mm/hr 0.00 in0.0 mm
09:15 PM 18.5°F-7.5°C 13.4°F-10.3°C 80% 5.0 mph WNW8.0 kmh WNW 7.0 mph11.3 kmh 30.34 in1027.4 mb 0.00 in0.0 mm 0.00 in/hr0.0 mm/hr 0.00 in0.0 mm
09:30 PM 18.3°F-7.6°C 13.2°F-10.4°C 80% Calm Calm 3.0 mph4.8 kmh 30.35 in1027.8 mb 0.00 in0.0 mm 0.00 in/hr0.0 mm/hr 0.00 in0.0 mm
09:45 PM 18.3°F-7.6°C 13.5°F-10.3°C 81% 4.0 mph NW6.4 kmh NW 5.0 mph8.0 kmh 30.35 in1027.8 mb 0.00 in0.0 mm 0.00 in/hr0.0 mm/hr 0.00 in0.0 mm
10:00 PM 18.3°F-7.6°C 13.2°F-10.4°C 80% 4.0 mph WNW6.4 kmh WNW 5.0 mph8.0 kmh 30.35 in1027.8 mb 0.00 in0.0 mm 0.00 in/hr0.0 mm/hr 0.00 in0.0 mm
10:15 PM 18.5°F-7.5°C 13.1°F-10.5°C 79% 4.0 mph NW6.4 kmh NW 6.0 mph9.7 kmh 30.35 in1027.8 mb 0.00 in0.0 mm 0.00 in/hr0.0 mm/hr 0.00 in0.0 mm
10:30 PM 18.7°F-7.4°C 13.0°F-10.6°C 78% 6.0 mph WNW9.7 kmh WNW 7.0 mph11.3 kmh 30.36 in1028.1 mb 0.00 in0.0 mm 0.00 in/hr0.0 mm/hr 0.00 in0.0 mm
10:45 PM 18.9°F-7.3°C 12.9°F-10.6°C 77% Calm Calm 5.0 mph8.0 kmh 30.35 in1027.8 mb 0.00 in0.0 mm 0.00 in/hr0.0 mm/hr 0.00 in0.0 mm
11:00 PM 19.0°F-7.2°C 12.7°F-10.7°C 76% 3.0 mph WNW4.8 kmh WNW 7.0 mph11.3 kmh 30.35 in1027.8 mb 0.00 in0.0 mm 0.00 in/hr0.0 mm/hr 0.00 in0.0 mm
11:15 PM 18.9°F-7.3°C 12.9°F-10.6°C 77% 2.0 mph NW3.2 kmh NW 6.0 mph9.7 kmh 30.35 in1027.8 mb 0.00 in0.0 mm 0.00 in/hr0.0 mm/hr 0.00 in0.0 mm
11:30 PM 18.8°F-7.3°C 12.8°F-10.7°C 77% 2.0 mph NW3.2 kmh NW 4.0 mph6.4 kmh 30.35 in1027.8 mb 0.00 in0.0 mm 0.00 in/hr0.0 mm/hr 0.00 in0.0 mm
11:45 PM 18.3°F-7.6°C 12.3°F-10.9°C 77% 3.0 mph N4.8 kmh N 4.0 mph6.4 kmh 30.35 in1027.8 mb 0.00 in0.0 mm 0.00 in/hr0.0 mm/hr 0.00 in0.0 mm